Kathryn B. — WDE2619 — position and weather

sailwx.info

Track history (hours):
 
Tides and Currents Weather Stations Pressure Air Temp Water Temp Dewpoint Dewpoint Depression Visibility Wind Speed Wind Dir Waves Ship Positions

Kathryn B.

Owner: Bernert Barge Lines, Oregon City, OR. More information available from US FCC via Universal Licensing System and Coast Guard Vessel Documentation Center.

Last reported at 2018-Feb-20 04:00 UTC. Time now 2018-Feb-20 04:07 UTC.
Position N 45°37' W 122°47'.

Length 34 m; draft 2.1 m.

Type: Towing. MMSI: 2421136.

Date/timePositionNaut miles runAvg speedWind from/ knotsBaromVisibWave heightAir tempDewpointWater temp
2018-Feb-20 04:00N 45°37' W 122°47'0 0.9
2018-Feb-20 03:30N 45°37' W 122°47'0 0.0
2018-Feb-20 03:00N 45°37' W 122°47'0 0.0
2018-Feb-20 02:30N 45°37' W 122°47'0 0.0
2018-Feb-20 02:01N 45°37' W 122°47'0 0.0
2018-Feb-20 01:30N 45°37' W 122°47'0 0.0
2018-Feb-20 01:00N 45°37' W 122°47'0 0.0
2018-Feb-20 00:30N 45°37' W 122°47'4 7.2
2018-Feb-20 00:01N 45°40' W 122°46'4 8.2
2018-Feb-19 23:31N 45°44' W 122°46'4 8.3
2018-Feb-19 23:00N 45°48' W 122°48'4 7.9
2018-Feb-19 22:30N 45°52' W 122°47'4 7.5
2018-Feb-19 22:00N 45°56' W 122°48'4 7.7
2018-Feb-19 21:30N 45°59' W 122°51'4 7.5
2018-Feb-19 21:00N 46°03' W 122°53'4 7.1
2018-Feb-19 20:31N 46°06' W 122°56'0 0.3
2018-Feb-19 20:00N 46°06' W 122°56'0 0.3
2018-Feb-19 18:58N 46°05' W 122°56'1 1.6
2018-Feb-19 18:10N 46°05' W 122°54'1 6.9
2018-Feb-19 18:00N 46°05' W 122°55'0 0.8
2018-Feb-19 17:30N 46°05' W 122°56'0 0.0
2018-Feb-19 17:00N 46°05' W 122°56'2 4.6
2018-Feb-19 16:30N 46°07' W 122°58'0 0.7
2018-Feb-19 16:00N 46°07' W 122°58'4 7.4
2018-Feb-19 15:29N 46°04' W 122°54'3 7.4
2018-Feb-19 15:00N 46°01' W 122°52'4 7.2
2018-Feb-19 14:30N 45°58' W 122°49'3 7.0
2018-Feb-19 14:00N 45°54' W 122°48'4 7.5
2018-Feb-19 13:30N 45°51' W 122°47'4 7.3
2018-Feb-19 13:00N 45°47' W 122°46'4 7.7
2018-Feb-19 12:30N 45°43' W 122°46'4 7.8
2018-Feb-19 12:01N 45°39' W 122°46'10 8.0
2018-Feb-19 10:48N 45°36' W 122°33'3 8.1
2018-Feb-19 10:23N 45°35' W 122°28'3 8.0
2018-Feb-19 10:00N 45°34' W 122°24'7 9.6
2018-Feb-19 09:18N 45°33' W 122°15'1 3.7
2018-Feb-19 09:00N 45°33' W 122°13'5 7.6
2018-Feb-19 08:24N 45°35' W 122°07'5 0.3
2018-Feb-18 11:22N 45°37' W 122°00'1 3.2
2018-Feb-18 11:00N 45°37' W 122°02'3 6.4
2018-Feb-18 10:29N 45°35' W 122°06'4 6.6
2018-Feb-18 09:49N 45°34' W 122°12'2 6.4
2018-Feb-18 09:29N 45°33' W 122°15'3 6.1
2018-Feb-18 09:00N 45°33' W 122°19'3 5.5
2018-Feb-18 08:30N 45°34' W 122°22'3 5.3
2018-Feb-18 08:00N 45°34' W 122°26'3 5.5
2018-Feb-18 07:30N 45°35' W 122°30'3 6.0
2018-Feb-18 07:00N 45°36' W 122°34'3 5.9
2018-Feb-18 06:30N 45°36' W 122°38'3 6.0
2018-Feb-18 06:00N 45°38' W 122°42'3 6.4
2018-Feb-18 05:30N 45°39' W 122°46'3 6.1
2018-Feb-18 05:01N 45°42' W 122°46'3 6.3
2018-Feb-18 04:31N 45°45' W 122°46'3 6.4
2018-Feb-18 04:00N 45°48' W 122°47'3 6.3
2018-Feb-18 03:30N 45°52' W 122°47'3 6.4
2018-Feb-18 03:01N 45°55' W 122°48'3 6.5
2018-Feb-18 02:30N 45°58' W 122°49'3 6.9
2018-Feb-18 02:00N 46°01' W 122°52'3 6.9
2018-Feb-18 01:31N 46°04' W 122°53'3 6.8
2018-Feb-18 01:00N 46°06' W 122°57'1 1.7
2018-Feb-18 00:11N 46°06' W 122°55'0 0.2
2018-Feb-17 23:48N 46°06' W 122°55'0 0.6
2018-Feb-17 23:30N 46°06' W 122°56'2 0.1
2018-Feb-16 20:43N 46°06' W 122°58'1 1.8
2018-Feb-16 20:25N 46°07' W 122°58'0 0.0
2018-Feb-16 20:00N 46°07' W 122°58'3 5.3
2018-Feb-16 19:24N 46°05' W 122°55'3 8.2
2018-Feb-16 19:00N 46°02' W 122°53'4 8.3
2018-Feb-16 18:30N 45°58' W 122°50'4 8.1
2018-Feb-16 17:59N 45°54' W 122°48'4 8.2
2018-Feb-16 17:30N 45°50' W 122°47'4 7.8
2018-Feb-16 17:00N 45°47' W 122°46'4 7.8
2018-Feb-16 16:30N 45°43' W 122°46'4 6.9
2018-Feb-16 15:52N 45°38' W 122°47'2 4.5
2018-Feb-16 15:30N 45°37' W 122°47'0 0.0
2018-Feb-16 15:00N 45°37' W 122°47'0 1.0
2018-Feb-16 14:30N 45°37' W 122°47'2 4.8
2018-Feb-16 14:00N 45°39' W 122°45'3 6.5
2018-Feb-16 13:30N 45°38' W 122°41'3 5.5
2018-Feb-16 13:00N 45°36' W 122°38'4 7.6
2018-Feb-16 12:30N 45°36' W 122°32'4 7.5
2018-Feb-16 11:59N 45°34' W 122°27'4 7.8
2018-Feb-16 11:31N 45°34' W 122°22'4 7.3
2018-Feb-16 11:00N 45°33' W 122°17'4 7.4
2018-Feb-16 10:30N 45°34' W 122°12'3 6.7
2018-Feb-16 10:00N 45°35' W 122°08'  
2018-Feb-13 17:19N 45°38' W 121°58'1 1.9
2018-Feb-13 16:46N 45°37' W 121°59'1 2.1
2018-Feb-13 16:26N 45°37' W 122°00'2 3.5
2018-Feb-13 15:45N 45°36' W 122°04'1 2.7
2018-Feb-13 15:20N 45°36' W 122°05'1 2.7
2018-Feb-13 14:58N 45°35' W 122°06'2 5.4
2018-Feb-13 14:30N 45°35' W 122°10'3 5.0
2018-Feb-13 14:01N 45°34' W 122°13'2 4.4
2018-Feb-13 13:30N 45°33' W 122°16'2 4.7
2018-Feb-13 12:59N 45°33' W 122°19'2 4.7
2018-Feb-13 12:31N 45°34' W 122°22'2 3.9
2018-Feb-13 11:59N 45°34' W 122°25'2 4.6
2018-Feb-13 11:30N 45°34' W 122°28'2 4.9
2018-Feb-13 11:00N 45°35' W 122°31'3 5.1
2018-Feb-13 10:30N 45°36' W 122°35'3 5.0
2018-Feb-13 10:00N 45°37' W 122°38'2 4.8
2018-Feb-13 09:30N 45°38' W 122°41'2 4.2
2018-Feb-13 09:00N 45°39' W 122°44'2 4.2
2018-Feb-13 08:30N 45°38' W 122°47'2 3.4
2018-Feb-13 08:00N 45°37' W 122°47'0 0.9
2018-Feb-13 07:30N 45°37' W 122°47'0 0.0
2018-Feb-13 07:00N 45°37' W 122°47'0 0.2
2018-Feb-13 06:30N 45°37' W 122°47'1 1.5
2018-Feb-13 05:49N 45°38' W 122°47'3 7.1
2018-Feb-13 05:24N 45°41' W 122°46'3 6.7
2018-Feb-13 05:01N 45°43' W 122°46'3 6.7
2018-Feb-13 04:30N 45°47' W 122°46'3 6.6
2018-Feb-13 04:00N 45°50' W 122°48'3 6.0
2018-Feb-13 03:30N 45°53' W 122°48'3 6.2
2018-Feb-13 03:00N 45°56' W 122°48'3 6.3
2018-Feb-13 02:31N 45°59' W 122°50'3 6.4
2018-Feb-13 02:00N 46°02' W 122°52'3 6.0
2018-Feb-13 01:31N 46°04' W 122°54'3 6.0
2018-Feb-13 01:00N 46°06' W 122°57'1 1.2
2018-Feb-13 00:13N 46°07' W 122°58'0 1.5
2018-Feb-13 00:00N 46°07' W 122°58'0 0.4
2018-Feb-12 23:31N 46°07' W 122°58'0 0.2
2018-Feb-12 23:00N 46°07' W 122°58'0 0.8
2018-Feb-12 22:30N 46°07' W 122°58'2 3.8
2018-Feb-12 22:01N 46°05' W 122°56'0 0.0
2018-Feb-12 03:08N 46°05' W 122°56'0 0.0
2018-Feb-12 03:00N 46°05' W 122°56'2 3.8
2018-Feb-12 02:30N 46°07' W 122°58'0 0.5
2018-Feb-12 02:00N 46°07' W 122°58'2 0.2
2018-Feb-11 11:44N 46°05' W 122°56'0 0.6
2018-Feb-11 11:30N 46°06' W 122°56'2 3.7
2018-Feb-11 11:00N 46°07' W 122°58'0 0.3
2018-Feb-11 10:30N 46°07' W 122°58'0 0.4
2018-Feb-11 10:00N 46°07' W 122°58'0 0.1
2018-Feb-11 09:30N 46°07' W 122°58'1 2.2
2018-Feb-11 09:00N 46°06' W 122°56'4 7.7
2018-Feb-11 08:30N 46°03' W 122°53'4 7.7
2018-Feb-11 08:00N 45°59' W 122°51'4 8.1
2018-Feb-11 07:30N 45°56' W 122°48'4 8.5
2018-Feb-11 06:59N 45°51' W 122°47'4 8.1
2018-Feb-11 06:30N 45°48' W 122°47'4 8.2
2018-Feb-11 06:00N 45°43' W 122°46'4 8.1
2018-Feb-11 05:30N 45°39' W 122°46'3 5.9
2018-Feb-11 05:00N 45°37' W 122°47'0 0.3
2018-Feb-11 04:30N 45°37' W 122°47'1 2.4
2018-Feb-11 03:59N 45°38' W 122°47'2 4.9
2018-Feb-11 03:30N 45°39' W 122°44'4 8.1
2018-Feb-11 03:01N 45°37' W 122°39'4 8.3
2018-Feb-11 02:30N 45°36' W 122°33'4 8.1
2018-Feb-11 01:59N 45°34' W 122°28'4 8.3
2018-Feb-11 01:30N 45°34' W 122°22'4 7.9
2018-Feb-11 01:00N 45°33' W 122°17'5 7.9
2018-Feb-11 00:25N 45°35' W 122°11'3 7.5
2018-Feb-10 23:57N 45°35' W 122°06'  
Track history (hours):
 
Tides and Currents Weather Stations Pressure Air Temp Water Temp Dewpoint Dewpoint Depression Visibility Wind Speed Wind Dir Waves Ship Positions

Kathryn B.

Owner: Bernert Barge Lines, Oregon City, OR. More information available from US FCC via Universal Licensing System and Coast Guard Vessel Documentation Center.

Last reported at 2018-Feb-20 04:00 UTC. Time now 2018-Feb-20 04:07 UTC.
Position N 45°37' W 122°47'.

Length 34 m; draft 2.1 m.

Type: Towing. MMSI: 2421136.

Date/timePositionNaut miles runAvg speedWind from/ knotsBaromVisibWave heightAir tempDewpointWater temp
2018-Feb-20 04:00N 45°37' W 122°47'0 0.9
2018-Feb-20 03:30N 45°37' W 122°47'0 0.0
2018-Feb-20 03:00N 45°37' W 122°47'0 0.0
2018-Feb-20 02:30N 45°37' W 122°47'0 0.0
2018-Feb-20 02:01N 45°37' W 122°47'0 0.0
2018-Feb-20 01:30N 45°37' W 122°47'0 0.0
2018-Feb-20 01:00N 45°37' W 122°47'0 0.0
2018-Feb-20 00:30N 45°37' W 122°47'4 7.2
2018-Feb-20 00:01N 45°40' W 122°46'4 8.2
2018-Feb-19 23:31N 45°44' W 122°46'4 8.3
2018-Feb-19 23:00N 45°48' W 122°48'4 7.9
2018-Feb-19 22:30N 45°52' W 122°47'4 7.5
2018-Feb-19 22:00N 45°56' W 122°48'4 7.7
2018-Feb-19 21:30N 45°59' W 122°51'4 7.5
2018-Feb-19 21:00N 46°03' W 122°53'4 7.1
2018-Feb-19 20:31N 46°06' W 122°56'0 0.3
2018-Feb-19 20:00N 46°06' W 122°56'0 0.3
2018-Feb-19 18:58N 46°05' W 122°56'1 1.6
2018-Feb-19 18:10N 46°05' W 122°54'1 6.9
2018-Feb-19 18:00N 46°05' W 122°55'0 0.8
2018-Feb-19 17:30N 46°05' W 122°56'0 0.0
2018-Feb-19 17:00N 46°05' W 122°56'2 4.6
2018-Feb-19 16:30N 46°07' W 122°58'0 0.7
2018-Feb-19 16:00N 46°07' W 122°58'4 7.4
2018-Feb-19 15:29N 46°04' W 122°54'3 7.4
2018-Feb-19 15:00N 46°01' W 122°52'4 7.2
2018-Feb-19 14:30N 45°58' W 122°49'3 7.0
2018-Feb-19 14:00N 45°54' W 122°48'4 7.5
2018-Feb-19 13:30N 45°51' W 122°47'4 7.3
2018-Feb-19 13:00N 45°47' W 122°46'4 7.7
2018-Feb-19 12:30N 45°43' W 122°46'4 7.8
2018-Feb-19 12:01N 45°39' W 122°46'10 8.0
2018-Feb-19 10:48N 45°36' W 122°33'3 8.1
2018-Feb-19 10:23N 45°35' W 122°28'3 8.0
2018-Feb-19 10:00N 45°34' W 122°24'7 9.6
2018-Feb-19 09:18N 45°33' W 122°15'1 3.7
2018-Feb-19 09:00N 45°33' W 122°13'5 7.6
2018-Feb-19 08:24N 45°35' W 122°07'5 0.3
2018-Feb-18 11:22N 45°37' W 122°00'1 3.2
2018-Feb-18 11:00N 45°37' W 122°02'3 6.4
2018-Feb-18 10:29N 45°35' W 122°06'4 6.6
2018-Feb-18 09:49N 45°34' W 122°12'2 6.4
2018-Feb-18 09:29N 45°33' W 122°15'3 6.1
2018-Feb-18 09:00N 45°33' W 122°19'3 5.5
2018-Feb-18 08:30N 45°34' W 122°22'3 5.3
2018-Feb-18 08:00N 45°34' W 122°26'3 5.5
2018-Feb-18 07:30N 45°35' W 122°30'3 6.0
2018-Feb-18 07:00N 45°36' W 122°34'3 5.9
2018-Feb-18 06:30N 45°36' W 122°38'3 6.0
2018-Feb-18 06:00N 45°38' W 122°42'3 6.4
2018-Feb-18 05:30N 45°39' W 122°46'3 6.1
2018-Feb-18 05:01N 45°42' W 122°46'3 6.3
2018-Feb-18 04:31N 45°45' W 122°46'3 6.4
2018-Feb-18 04:00N 45°48' W 122°47'3 6.3
2018-Feb-18 03:30N 45°52' W 122°47'3 6.4
2018-Feb-18 03:01N 45°55' W 122°48'3 6.5
2018-Feb-18 02:30N 45°58' W 122°49'3 6.9
2018-Feb-18 02:00N 46°01' W 122°52'3 6.9
2018-Feb-18 01:31N 46°04' W 122°53'3 6.8
2018-Feb-18 01:00N 46°06' W 122°57'1 1.7
2018-Feb-18 00:11N 46°06' W 122°55'0 0.2
2018-Feb-17 23:48N 46°06' W 122°55'0 0.6
2018-Feb-17 23:30N 46°06' W 122°56'2 0.1
2018-Feb-16 20:43N 46°06' W 122°58'1 1.8
2018-Feb-16 20:25N 46°07' W 122°58'0 0.0
2018-Feb-16 20:00N 46°07' W 122°58'3 5.3
2018-Feb-16 19:24N 46°05' W 122°55'3 8.2
2018-Feb-16 19:00N 46°02' W 122°53'4 8.3
2018-Feb-16 18:30N 45°58' W 122°50'4 8.1
2018-Feb-16 17:59N 45°54' W 122°48'4 8.2
2018-Feb-16 17:30N 45°50' W 122°47'4 7.8
2018-Feb-16 17:00N 45°47' W 122°46'4 7.8
2018-Feb-16 16:30N 45°43' W 122°46'4 6.9
2018-Feb-16 15:52N 45°38' W 122°47'2 4.5
2018-Feb-16 15:30N 45°37' W 122°47'0 0.0
2018-Feb-16 15:00N 45°37' W 122°47'0 1.0
2018-Feb-16 14:30N 45°37' W 122°47'2 4.8
2018-Feb-16 14:00N 45°39' W 122°45'3 6.5
2018-Feb-16 13:30N 45°38' W 122°41'3 5.5
2018-Feb-16 13:00N 45°36' W 122°38'4 7.6
2018-Feb-16 12:30N 45°36' W 122°32'4 7.5
2018-Feb-16 11:59N 45°34' W 122°27'4 7.8
2018-Feb-16 11:31N 45°34' W 122°22'4 7.3
2018-Feb-16 11:00N 45°33' W 122°17'4 7.4
2018-Feb-16 10:30N 45°34' W 122°12'3 6.7
2018-Feb-16 10:00N 45°35' W 122°08'  
2018-Feb-13 17:19N 45°38' W 121°58'1 1.9
2018-Feb-13 16:46N 45°37' W 121°59'1 2.1
2018-Feb-13 16:26N 45°37' W 122°00'2 3.5
2018-Feb-13 15:45N 45°36' W 122°04'1 2.7
2018-Feb-13 15:20N 45°36' W 122°05'1 2.7
2018-Feb-13 14:58N 45°35' W 122°06'2 5.4
2018-Feb-13 14:30N 45°35' W 122°10'3 5.0
2018-Feb-13 14:01N 45°34' W 122°13'2 4.4
2018-Feb-13 13:30N 45°33' W 122°16'2 4.7
2018-Feb-13 12:59N 45°33' W 122°19'2 4.7
2018-Feb-13 12:31N 45°34' W 122°22'2 3.9
2018-Feb-13 11:59N 45°34' W 122°25'2 4.6
2018-Feb-13 11:30N 45°34' W 122°28'2 4.9
2018-Feb-13 11:00N 45°35' W 122°31'3 5.1
2018-Feb-13 10:30N 45°36' W 122°35'3 5.0
2018-Feb-13 10:00N 45°37' W 122°38'2 4.8
2018-Feb-13 09:30N 45°38' W 122°41'2 4.2
2018-Feb-13 09:00N 45°39' W 122°44'2 4.2
2018-Feb-13 08:30N 45°38' W 122°47'2 3.4
2018-Feb-13 08:00N 45°37' W 122°47'0 0.9
2018-Feb-13 07:30N 45°37' W 122°47'0 0.0
2018-Feb-13 07:00N 45°37' W 122°47'0 0.2
2018-Feb-13 06:30N 45°37' W 122°47'1 1.5
2018-Feb-13 05:49N 45°38' W 122°47'3 7.1
2018-Feb-13 05:24N 45°41' W 122°46'3 6.7
2018-Feb-13 05:01N 45°43' W 122°46'3 6.7
2018-Feb-13 04:30N 45°47' W 122°46'3 6.6
2018-Feb-13 04:00N 45°50' W 122°48'3 6.0
2018-Feb-13 03:30N 45°53' W 122°48'3 6.2
2018-Feb-13 03:00N 45°56' W 122°48'3 6.3
2018-Feb-13 02:31N 45°59' W 122°50'3 6.4
2018-Feb-13 02:00N 46°02' W 122°52'3 6.0
2018-Feb-13 01:31N 46°04' W 122°54'3 6.0
2018-Feb-13 01:00N 46°06' W 122°57'1 1.2
2018-Feb-13 00:13N 46°07' W 122°58'0 1.5
2018-Feb-13 00:00N 46°07' W 122°58'0 0.4
2018-Feb-12 23:31N 46°07' W 122°58'0 0.2
2018-Feb-12 23:00N 46°07' W 122°58'0 0.8
2018-Feb-12 22:30N 46°07' W 122°58'2 3.8
2018-Feb-12 22:01N 46°05' W 122°56'0 0.0
2018-Feb-12 03:08N 46°05' W 122°56'0 0.0
2018-Feb-12 03:00N 46°05' W 122°56'2 3.8
2018-Feb-12 02:30N 46°07' W 122°58'0 0.5
2018-Feb-12 02:00N 46°07' W 122°58'2 0.2
2018-Feb-11 11:44N 46°05' W 122°56'0 0.6
2018-Feb-11 11:30N 46°06' W 122°56'2 3.7
2018-Feb-11 11:00N 46°07' W 122°58'0 0.3
2018-Feb-11 10:30N 46°07' W 122°58'0 0.4
2018-Feb-11 10:00N 46°07' W 122°58'0 0.1
2018-Feb-11 09:30N 46°07' W 122°58'1 2.2
2018-Feb-11 09:00N 46°06' W 122°56'4 7.7
2018-Feb-11 08:30N 46°03' W 122°53'4 7.7
2018-Feb-11 08:00N 45°59' W 122°51'4 8.1
2018-Feb-11 07:30N 45°56' W 122°48'4 8.5
2018-Feb-11 06:59N 45°51' W 122°47'4 8.1
2018-Feb-11 06:30N 45°48' W 122°47'4 8.2
2018-Feb-11 06:00N 45°43' W 122°46'4 8.1
2018-Feb-11 05:30N 45°39' W 122°46'3 5.9
2018-Feb-11 05:00N 45°37' W 122°47'0 0.3
2018-Feb-11 04:30N 45°37' W 122°47'1 2.4
2018-Feb-11 03:59N 45°38' W 122°47'2 4.9
2018-Feb-11 03:30N 45°39' W 122°44'4 8.1
2018-Feb-11 03:01N 45°37' W 122°39'4 8.3
2018-Feb-11 02:30N 45°36' W 122°33'4 8.1
2018-Feb-11 01:59N 45°34' W 122°28'4 8.3
2018-Feb-11 01:30N 45°34' W 122°22'4 7.9
2018-Feb-11 01:00N 45°33' W 122°17'5 7.9
2018-Feb-11 00:25N 45°35' W 122°11'3 7.5
2018-Feb-10 23:57N 45°35' W 122°06'  

Dump ship's entire track history